Etusivu
METAR-TAF:

METAR-TAF

Lentoasemat :

Caracas, Venezuela

Leveyspiiri: 10-36N, Pituuspiiri: 066-59W, korkeus merenpinnasta: 43 m

Tämänhetkinen sää

Tämä raportti tehtiin 42 minuuttia sitten, kello 05.02 UTC
Tuuli 11 kn idästä
Lämpötila
Ilmanpaine 1013 hPa

METAR: SVMI 120502Z AUTO 09011KT NCD ///// Q1013

Aika: 01:44 (05:44 UTC)

Sääennuste

Tämä raportti tehtiin 1 tunti ja 44 minuuttia sitten, kello 04.00 UTC
Ennuste voimassa 12. päivästä klo 06 UTC - 13. päivään klo 06 UTC
Tuuli 5 kn idästä
Näkyvyys 10 km tai enemmän
Hajonneita pilviä 1600 ft:n korkeudessa
Ajoittain
12. päivästä klo 06 UTC - 12. päivään klo 10 UTC
Tuuli 6 kn etelästä/lounaasta
Näkyvyys: 9000 m
Hajonneita pilviä 1300 ft:n korkeudessa
heikkoa tihkusadetta

TAF: SVMI 120400Z 1206/1306 09005KT 9999 BKN016 TX31/1218Z TN24/1208Z TEMPO 1206/1210 21006KT 9000 -DZ BKN013

Säähavainnot ja -ennusteet yli 4000 lentoasemalta (METAR- ja TAF-raportit).

Käytössä olevat sääasemat on merkitty karttaan keltaisilla ja punaisilla pisteillä.

Aseta hiiri pisteen päälle nähdäksesi sääaseman nimen.

Klikkaa sitten nähdäksesi säähavainnot ja -ennusteet.

Kartan vaihtaminen: klikkaa mustalla rastilla varustettuja vihreitä pisteitä, niin voit zoomata sisään; viivalla varustettua vihreää pistettä, niin voit zoomata ulos tai vihreitä nuolia, niin pääset viereisille kartoille.


METAR-TAF: